sensor_id;sensor_type;location;lat;lon;timestamp;pressure;altitude;pressure_sealevel;temperature;humidity
36284;BME280;56085;48.910;9.478;2023-03-23T00:02:04;97598.44;;;11.63;56.16
36284;BME280;56085;48.910;9.478;2023-03-23T00:04:29;97585.03;;;11.68;56.28
36284;BME280;56085;48.910;9.478;2023-03-23T00:06:54;97594.19;;;11.76;56.02
36284;BME280;56085;48.910;9.478;2023-03-23T00:09:20;97585.47;;;11.74;56.23
36284;BME280;56085;48.910;9.478;2023-03-23T00:11:48;97585.44;;;11.67;56.92
36284;BME280;56085;48.910;9.478;2023-03-23T00:14:13;97588.59;;;11.69;57.24
36284;BME280;56085;48.910;9.478;2023-03-23T00:16:39;97585.44;;;11.70;57.58
36284;BME280;56085;48.910;9.478;2023-03-23T00:19:10;97588.59;;;11.69;57.88
36284;BME280;56085;48.910;9.478;2023-03-23T00:21:38;97590.97;;;11.70;57.71
36284;BME280;56085;48.910;9.478;2023-03-23T00:24:08;97589.06;;;11.82;57.25
36284;BME280;56085;48.910;9.478;2023-03-23T00:26:35;97586.03;;;11.98;56.51
36284;BME280;56085;48.910;9.478;2023-03-23T00:29:01;97580.53;;;12.05;56.31
36284;BME280;56085;48.910;9.478;2023-03-23T00:31:27;97582.53;;;12.15;55.81
36284;BME280;56085;48.910;9.478;2023-03-23T00:34:00;97581.00;;;12.29;55.20
36284;BME280;56085;48.910;9.478;2023-03-23T00:36:27;97577.09;;;12.40;54.79
36284;BME280;56085;48.910;9.478;2023-03-23T00:38:53;97570.38;;;12.42;54.42
36284;BME280;56085;48.910;9.478;2023-03-23T00:41:18;97580.69;;;12.52;54.08
36284;BME280;56085;48.910;9.478;2023-03-23T00:43:43;97570.03;;;12.61;53.82
36284;BME280;56085;48.910;9.478;2023-03-23T00:46:08;97559.34;;;12.67;53.42
36284;BME280;56085;48.910;9.478;2023-03-23T00:48:35;97560.53;;;12.73;52.84
36284;BME280;56085;48.910;9.478;2023-03-23T00:51:01;97558.19;;;12.75;52.66
36284;BME280;56085;48.910;9.478;2023-03-23T00:53:30;97554.63;;;12.78;52.32
36284;BME280;56085;48.910;9.478;2023-03-23T00:55:55;97553.03;;;12.84;52.06
36284;BME280;56085;48.910;9.478;2023-03-23T00:58:21;97549.47;;;12.87;52.14
36284;BME280;56085;48.910;9.478;2023-03-23T01:00:46;97541.56;;;12.89;51.73
36284;BME280;56085;48.910;9.478;2023-03-23T01:03:11;97549.88;;;12.93;51.28
36284;BME280;56085;48.910;9.478;2023-03-23T01:05:43;97545.91;;;12.98;51.43
36284;BME280;56085;48.910;9.478;2023-03-23T01:08:08;97547.09;;;13.04;51.00
36284;BME280;56085;48.910;9.478;2023-03-23T01:10:35;97537.97;;;13.03;50.92
36284;BME280;56085;48.910;9.478;2023-03-23T01:13:03;97539.19;;;13.06;50.75
36284;BME280;56085;48.910;9.478;2023-03-23T01:15:29;97528.84;;;13.06;50.58
36284;BME280;56085;48.910;9.478;2023-03-23T01:17:55;97518.94;;;13.09;50.51
36284;BME280;56085;48.910;9.478;2023-03-23T01:20:20;97517.78;;;13.10;50.15
36284;BME280;56085;48.910;9.478;2023-03-23T01:22:45;97511.81;;;13.12;50.22
36284;BME280;56085;48.910;9.478;2023-03-23T01:25:11;97514.97;;;13.14;49.96
36284;BME280;56085;48.910;9.478;2023-03-23T01:27:37;97510.63;;;13.16;49.94
36284;BME280;56085;48.910;9.478;2023-03-23T01:30:03;97512.22;;;13.17;49.35
36284;BME280;56085;48.910;9.478;2023-03-23T01:32:28;97499.50;;;13.20;49.36
36284;BME280;56085;48.910;9.478;2023-03-23T01:34:53;97502.69;;;13.22;49.17
36284;BME280;56085;48.910;9.478;2023-03-23T01:37:19;97492.78;;;13.21;49.09
36284;BME280;56085;48.910;9.478;2023-03-23T01:39:44;97503.50;;;13.19;48.95
36284;BME280;56085;48.910;9.478;2023-03-23T01:42:10;97504.69;;;13.18;48.98
36284;BME280;56085;48.910;9.478;2023-03-23T01:47:00;97496.34;;;13.21;48.60
36284;BME280;56085;48.910;9.478;2023-03-23T01:49:32;97499.09;;;13.21;48.48
36284;BME280;56085;48.910;9.478;2023-03-23T01:52:05;97498.75;;;13.23;48.27
36284;BME280;56085;48.910;9.478;2023-03-23T01:54:31;97493.19;;;13.23;48.18
36284;BME280;56085;48.910;9.478;2023-03-23T01:56:59;97487.22;;;13.24;48.30
36284;BME280;56085;48.910;9.478;2023-03-23T01:59:24;97486.84;;;13.26;47.84
36284;BME280;56085;48.910;9.478;2023-03-23T02:01:51;97486.03;;;13.25;48.01
36284;BME280;56085;48.910;9.478;2023-03-23T02:04:17;97491.97;;;13.24;47.95
36284;BME280;56085;48.910;9.478;2023-03-23T02:06:43;97490.78;;;13.25;47.72
36284;BME280;56085;48.910;9.478;2023-03-23T02:09:09;97484.06;;;13.26;47.78
36284;BME280;56085;48.910;9.478;2023-03-23T02:11:35;97480.47;;;13.25;47.48
36284;BME280;56085;48.910;9.478;2023-03-23T02:14:00;97480.88;;;13.27;47.77
36284;BME280;56085;48.910;9.478;2023-03-23T02:16:47;97469.75;;;13.24;47.42
36284;BME280;56085;48.910;9.478;2023-03-23T02:26:58;97478.50;;;13.33;47.16
36284;BME280;56085;48.910;9.478;2023-03-23T02:34:27;97475.34;;;13.35;47.13
36284;BME280;56085;48.910;9.478;2023-03-23T02:36:58;97469.00;;;13.38;46.98
36284;BME280;56085;48.910;9.478;2023-03-23T02:39:26;97473.72;;;13.37;46.66
36284;BME280;56085;48.910;9.478;2023-03-23T02:41:56;97459.84;;;13.41;46.86
36284;BME280;56085;48.910;9.478;2023-03-23T02:44:22;97465.78;;;13.43;46.96
36284;BME280;56085;48.910;9.478;2023-03-23T02:46:49;97462.22;;;13.42;46.56
36284;BME280;56085;48.910;9.478;2023-03-23T02:49:16;97460.66;;;13.45;46.38
36284;BME280;56085;48.910;9.478;2023-03-23T02:51:43;97445.94;;;13.44;46.39
36284;BME280;56085;48.910;9.478;2023-03-23T02:54:11;97443.97;;;13.45;46.29
36284;BME280;56085;48.910;9.478;2023-03-23T02:56:37;97434.84;;;13.44;46.40
36284;BME280;56085;48.910;9.478;2023-03-23T02:59:03;97440.00;;;13.46;46.63
36284;BME280;56085;48.910;9.478;2023-03-23T03:03:54;97429.69;;;13.54;46.63
36284;BME280;56085;48.910;9.478;2023-03-23T03:09:49;97423.72;;;13.55;46.67
36284;BME280;56085;48.910;9.478;2023-03-23T03:11:43;97432.06;;;13.55;46.48
36284;BME280;56085;48.910;9.478;2023-03-23T03:14:13;97422.50;;;13.56;46.76
36284;BME280;56085;48.910;9.478;2023-03-23T03:19:09;97413.41;;;13.59;46.75
36284;BME280;56085;48.910;9.478;2023-03-23T03:21:37;97416.53;;;13.61;46.50
36284;BME280;56085;48.910;9.478;2023-03-23T03:24:04;97411.00;;;13.61;46.74
36284;BME280;56085;48.910;9.478;2023-03-23T03:26:33;97399.47;;;13.63;46.47
36284;BME280;56085;48.910;9.478;2023-03-23T03:28:59;97409.41;;;13.64;46.49
36284;BME280;56085;48.910;9.478;2023-03-23T03:31:29;97410.97;;;13.65;46.47
36284;BME280;56085;48.910;9.478;2023-03-23T03:33:55;97403.84;;;13.64;46.32
36284;BME280;56085;48.910;9.478;2023-03-23T03:36:23;97403.84;;;13.64;46.59
36284;BME280;56085;48.910;9.478;2023-03-23T03:38:50;97408.59;;;13.67;46.52
36284;BME280;56085;48.910;9.478;2023-03-23T03:41:16;97407.41;;;13.68;46.55
36284;BME280;56085;48.910;9.478;2023-03-23T03:43:41;97414.94;;;13.68;46.56
36284;BME280;56085;48.910;9.478;2023-03-23T03:46:06;97412.97;;;13.68;46.36
36284;BME280;56085;48.910;9.478;2023-03-23T03:48:32;97413.34;;;13.70;46.34
36284;BME280;56085;48.910;9.478;2023-03-23T03:50:57;97416.13;;;13.70;45.88
36284;BME280;56085;48.910;9.478;2023-03-23T03:53:25;97403.81;;;13.71;46.03
36284;BME280;56085;48.910;9.478;2023-03-23T03:55:50;97406.19;;;13.69;45.97
36284;BME280;56085;48.910;9.478;2023-03-23T03:58:20;97400.63;;;13.73;45.95
36284;BME280;56085;48.910;9.478;2023-03-23T04:00:45;97408.56;;;13.71;45.91
36284;BME280;56085;48.910;9.478;2023-03-23T04:03:13;97401.03;;;13.71;46.31
36284;BME280;56085;48.910;9.478;2023-03-23T04:05:38;97402.59;;;13.72;46.07
36284;BME280;56085;48.910;9.478;2023-03-23T04:08:03;97404.59;;;13.72;46.21
36284;BME280;56085;48.910;9.478;2023-03-23T04:10:29;97400.63;;;13.73;45.87
36284;BME280;56085;48.910;9.478;2023-03-23T04:12:54;97408.16;;;13.76;45.69
36284;BME280;56085;48.910;9.478;2023-03-23T04:15:20;97401.78;;;13.79;45.84
36284;BME280;56085;48.910;9.478;2023-03-23T04:17:46;97402.56;;;13.79;45.98
36284;BME280;56085;48.910;9.478;2023-03-23T04:20:12;97408.94;;;13.80;45.67
36284;BME280;56085;48.910;9.478;2023-03-23T04:22:42;97414.47;;;13.84;45.72
36284;BME280;56085;48.910;9.478;2023-03-23T04:25:08;97416.47;;;13.83;45.63
36284;BME280;56085;48.910;9.478;2023-03-23T04:27:36;97410.09;;;13.86;45.79
36284;BME280;56085;48.910;9.478;2023-03-23T04:30:01;97411.28;;;13.89;45.61
36284;BME280;56085;48.910;9.478;2023-03-23T04:32:27;97411.28;;;13.89;45.60
36284;BME280;56085;48.910;9.478;2023-03-23T04:34:57;97418.38;;;13.90;45.93
36284;BME280;56085;48.910;9.478;2023-03-23T04:37:24;97417.56;;;13.96;45.98
36284;BME280;56085;48.910;9.478;2023-03-23T04:39:51;97418.75;;;13.99;45.86
36284;BME280;56085;48.910;9.478;2023-03-23T04:42:24;97403.25;;;14.02;45.94
36284;BME280;56085;48.910;9.478;2023-03-23T04:44:50;97404.81;;;14.03;45.63
36284;BME280;56085;48.910;9.478;2023-03-23T04:47:19;97416.72;;;14.07;45.65
36284;BME280;56085;48.910;9.478;2023-03-23T04:49:44;97404.75;;;14.17;45.42
36284;BME280;56085;48.910;9.478;2023-03-23T04:52:09;97405.53;;;14.21;45.76
36284;BME280;56085;48.910;9.478;2023-03-23T04:54:34;97404.69;;;14.24;45.29
36284;BME280;56085;48.910;9.478;2023-03-23T04:57:00;97401.09;;;14.27;45.49
36284;BME280;56085;48.910;9.478;2023-03-23T04:59:25;97400.69;;;14.29;45.50
36284;BME280;56085;48.910;9.478;2023-03-23T05:01:53;97409.44;;;14.31;45.27
36284;BME280;56085;48.910;9.478;2023-03-23T05:04:18;97397.09;;;14.36;45.12
36284;BME280;56085;48.910;9.478;2023-03-23T05:06:43;97396.69;;;14.34;45.54
36284;BME280;56085;48.910;9.478;2023-03-23T05:09:10;97395.91;;;14.33;45.15
36284;BME280;56085;48.910;9.478;2023-03-23T05:11:35;97408.22;;;14.32;45.12
36284;BME280;56085;48.910;9.478;2023-03-23T05:14:02;97408.63;;;14.30;45.36
36284;BME280;56085;48.910;9.478;2023-03-23T05:16:27;97410.22;;;14.31;45.23
36284;BME280;56085;48.910;9.478;2023-03-23T05:18:53;97402.66;;;14.32;45.20
36284;BME280;56085;48.910;9.478;2023-03-23T05:21:22;97406.25;;;14.29;44.94
36284;BME280;56085;48.910;9.478;2023-03-23T05:23:47;97399.09;;;14.28;45.15
36284;BME280;56085;48.910;9.478;2023-03-23T05:26:19;97397.53;;;14.27;45.14
36284;BME280;56085;48.910;9.478;2023-03-23T05:28:44;97389.19;;;14.27;44.93
36284;BME280;56085;48.910;9.478;2023-03-23T05:31:10;97394.34;;;14.25;45.35
36284;BME280;56085;48.910;9.478;2023-03-23T05:33:35;97392.75;;;14.27;44.99
36284;BME280;56085;48.910;9.478;2023-03-23T05:36:01;97397.94;;;14.25;44.78
36284;BME280;56085;48.910;9.478;2023-03-23T05:38:29;97394.34;;;14.25;45.01
36284;BME280;56085;48.910;9.478;2023-03-23T05:40:57;97403.50;;;14.25;45.25
36284;BME280;56085;48.910;9.478;2023-03-23T05:43:24;97400.72;;;14.25;44.84
36284;BME280;56085;48.910;9.478;2023-03-23T05:45:50;97396.78;;;14.23;45.13
36284;BME280;56085;48.910;9.478;2023-03-23T05:48:15;97398.78;;;14.22;45.25
36284;BME280;56085;48.910;9.478;2023-03-23T05:50:40;97402.34;;;14.19;45.19
36284;BME280;56085;48.910;9.478;2023-03-23T05:53:06;97398.00;;;14.18;45.09
36284;BME280;56085;48.910;9.478;2023-03-23T05:55:31;97399.97;;;14.18;44.87
36284;BME280;56085;48.910;9.478;2023-03-23T05:57:56;97401.19;;;14.17;45.32
36284;BME280;56085;48.910;9.478;2023-03-23T06:00:21;97409.13;;;14.18;45.13
36284;BME280;56085;48.910;9.478;2023-03-23T06:02:48;97410.31;;;14.21;44.96
36284;BME280;56085;48.910;9.478;2023-03-23T06:05:14;97413.06;;;14.21;45.13
36284;BME280;56085;48.910;9.478;2023-03-23T06:07:40;97417.81;;;14.20;45.42
36284;BME280;56085;48.910;9.478;2023-03-23T06:10:06;97428.13;;;14.23;45.06
36284;BME280;56085;48.910;9.478;2023-03-23T06:12:32;97424.94;;;14.28;44.63
36284;BME280;56085;48.910;9.478;2023-03-23T06:14:57;97420.97;;;14.29;44.97
36284;BME280;56085;48.910;9.478;2023-03-23T06:17:23;97432.88;;;14.30;45.03
36284;BME280;56085;48.910;9.478;2023-03-23T06:19:48;97429.31;;;14.29;45.24
36284;BME280;56085;48.910;9.478;2023-03-23T06:22:15;97448.78;;;14.29;44.95
36284;BME280;56085;48.910;9.478;2023-03-23T06:24:41;97441.22;;;14.30;44.82
36284;BME280;56085;48.910;9.478;2023-03-23T06:27:06;97442.00;;;14.30;44.94
36284;BME280;56085;48.910;9.478;2023-03-23T06:29:33;97445.59;;;14.31;45.24
36284;BME280;56085;48.910;9.478;2023-03-23T06:31:59;97446.72;;;14.34;44.84
36284;BME280;56085;48.910;9.478;2023-03-23T06:34:25;97449.91;;;14.32;45.16
36284;BME280;56085;48.910;9.478;2023-03-23T06:36:50;97441.22;;;14.30;44.85
36284;BME280;56085;48.910;9.478;2023-03-23T06:39:16;97443.22;;;14.29;45.27
36284;BME280;56085;48.910;9.478;2023-03-23T06:41:41;97444.00;;;14.30;45.16
36284;BME280;56085;48.910;9.478;2023-03-23T06:44:06;97456.31;;;14.29;44.88
36284;BME280;56085;48.910;9.478;2023-03-23T06:46:33;97453.13;;;14.30;45.13
36284;BME280;56085;48.910;9.478;2023-03-23T06:48:58;97451.56;;;14.29;45.16
36284;BME280;56085;48.910;9.478;2023-03-23T06:51:24;97462.25;;;14.31;44.94
36284;BME280;56085;48.910;9.478;2023-03-23T06:53:49;97454.69;;;14.31;45.09
36284;BME280;56085;48.910;9.478;2023-03-23T06:56:14;97457.47;;;14.31;45.24
36284;BME280;56085;48.910;9.478;2023-03-23T06:58:40;97452.28;;;14.34;44.98
36284;BME280;56085;48.910;9.478;2023-03-23T07:01:06;97463.00;;;14.35;45.02
36284;BME280;56085;48.910;9.478;2023-03-23T07:03:33;97455.03;;;14.41;45.27
36284;BME280;56085;48.910;9.478;2023-03-23T07:05:58;97454.22;;;14.47;45.35
36284;BME280;56085;48.910;9.478;2023-03-23T07:08:24;97457.34;;;14.53;45.06
36284;BME280;56085;48.910;9.478;2023-03-23T07:10:53;97467.25;;;14.58;45.13
36284;BME280;56085;48.910;9.478;2023-03-23T07:13:19;97468.44;;;14.60;45.35
36284;BME280;56085;48.910;9.478;2023-03-23T07:15:44;97466.81;;;14.63;45.40
36284;BME280;56085;48.910;9.478;2023-03-23T07:18:10;97474.38;;;14.62;45.25
36284;BME280;56085;48.910;9.478;2023-03-23T07:20:35;97475.16;;;14.63;45.33
36284;BME280;56085;48.910;9.478;2023-03-23T07:23:01;97472.41;;;14.59;45.42
36284;BME280;56085;48.910;9.478;2023-03-23T07:25:27;97479.16;;;14.58;45.57
36284;BME280;56085;48.910;9.478;2023-03-23T07:27:52;97485.16;;;14.49;45.40
36284;BME280;56085;48.910;9.478;2023-03-23T07:30:17;97497.13;;;14.46;45.54
36284;BME280;56085;48.910;9.478;2023-03-23T07:32:42;97495.53;;;14.45;45.84
36284;BME280;56085;48.910;9.478;2023-03-23T07:35:08;97499.53;;;14.41;45.56
36284;BME280;56085;48.910;9.478;2023-03-23T07:37:34;97507.09;;;14.37;45.58
36284;BME280;56085;48.910;9.478;2023-03-23T07:39:59;97513.06;;;14.35;45.91
36284;BME280;56085;48.910;9.478;2023-03-23T07:42:24;97506.75;;;14.31;46.06
36284;BME280;56085;48.910;9.478;2023-03-23T07:44:49;97521.44;;;14.31;46.16
36284;BME280;56085;48.910;9.478;2023-03-23T07:47:14;97513.91;;;14.28;46.11
36284;BME280;56085;48.910;9.478;2023-03-23T07:49:40;97529.00;;;14.27;45.75
36284;BME280;56085;48.910;9.478;2023-03-23T07:52:05;97525.81;;;14.32;46.23
36284;BME280;56085;48.910;9.478;2023-03-23T07:54:30;97524.19;;;14.35;45.79
36284;BME280;56085;48.910;9.478;2023-03-23T07:56:56;97524.19;;;14.39;45.98
36284;BME280;56085;48.910;9.478;2023-03-23T07:59:21;97526.94;;;14.46;45.92
36284;BME280;56085;48.910;9.478;2023-03-23T08:01:46;97531.22;;;14.54;46.26
36284;BME280;56085;48.910;9.478;2023-03-23T08:04:12;97534.72;;;14.73;46.15
36284;BME280;56085;48.910;9.478;2023-03-23T08:06:38;97529.47;;;14.86;45.84
36284;BME280;56085;48.910;9.478;2023-03-23T08:09:04;97533.81;;;14.90;46.16
36284;BME280;56085;48.910;9.478;2023-03-23T08:11:33;97531.34;;;14.99;46.02
36284;BME280;56085;48.910;9.478;2023-03-23T08:13:58;97532.06;;;15.11;45.96
36284;BME280;56085;48.910;9.478;2023-03-23T08:16:23;97528.88;;;15.12;45.99
36284;BME280;56085;48.910;9.478;2023-03-23T08:18:49;97532.41;;;15.16;45.94
36284;BME280;56085;48.910;9.478;2023-03-23T08:21:15;97537.16;;;15.23;45.61
36284;BME280;56085;48.910;9.478;2023-03-23T08:23:40;97537.81;;;15.34;45.85
36284;BME280;56085;48.910;9.478;2023-03-23T08:26:05;97541.41;;;15.35;46.21
36284;BME280;56085;48.910;9.478;2023-03-23T08:28:32;97541.22;;;15.57;45.73
36284;BME280;56085;48.910;9.478;2023-03-23T08:30:57;97550.81;;;15.52;46.36
36284;BME280;56085;48.910;9.478;2023-03-23T08:33:23;97553.56;;;15.56;45.94
36284;BME280;56085;48.910;9.478;2023-03-23T08:35:58;97556.38;;;15.52;45.93
36284;BME280;56085;48.910;9.478;2023-03-23T08:38:23;97557.59;;;15.51;46.04
36284;BME280;56085;48.910;9.478;2023-03-23T08:40:49;97557.53;;;15.58;46.18
36284;BME280;56085;48.910;9.478;2023-03-23T08:43:15;97548.00;;;15.52;46.53
36284;BME280;56085;48.910;9.478;2023-03-23T08:45:40;97556.44;;;15.45;46.39
36284;BME280;56085;48.910;9.478;2023-03-23T08:48:06;97554.06;;;15.43;46.59
36284;BME280;56085;48.910;9.478;2023-03-23T08:50:32;97566.38;;;15.49;46.72
36284;BME280;56085;48.910;9.478;2023-03-23T08:52:57;97561.22;;;15.48;47.16
36284;BME280;56085;48.910;9.478;2023-03-23T08:55:23;97554.88;;;15.40;47.43
36284;BME280;56085;48.910;9.478;2023-03-23T08:57:49;97564.16;;;15.26;47.14
36284;BME280;56085;48.910;9.478;2023-03-23T09:00:16;97571.84;;;15.11;47.48
36284;BME280;56085;48.910;9.478;2023-03-23T09:02:45;97565.16;;;15.01;47.38
36284;BME280;56085;48.910;9.478;2023-03-23T09:05:11;97578.38;;;14.87;47.65
36284;BME280;56085;48.910;9.478;2023-03-23T09:07:37;97577.97;;;14.88;48.32
36284;BME280;56085;48.910;9.478;2023-03-23T09:10:03;97572.47;;;14.77;48.27
36284;BME280;56085;48.910;9.478;2023-03-23T09:12:28;97583.22;;;14.75;48.35
36284;BME280;56085;48.910;9.478;2023-03-23T09:14:54;97591.19;;;14.70;48.84
36284;BME280;56085;48.910;9.478;2023-03-23T09:17:20;97592.41;;;14.65;48.65
36284;BME280;56085;48.910;9.478;2023-03-23T09:19:45;97602.75;;;14.57;48.93
36284;BME280;56085;48.910;9.478;2023-03-23T09:22:11;97605.53;;;14.57;49.18
36284;BME280;56085;48.910;9.478;2023-03-23T09:24:36;97603.97;;;14.56;49.70
36284;BME280;56085;48.910;9.478;2023-03-23T09:27:02;97609.13;;;14.58;49.99
36284;BME280;56085;48.910;9.478;2023-03-23T09:29:27;97615.06;;;14.67;49.69
36284;BME280;56085;48.910;9.478;2023-03-23T09:31:53;97610.25;;;14.71;50.01
36284;BME280;56085;48.910;9.478;2023-03-23T09:34:18;97608.19;;;14.86;49.79
36284;BME280;56085;48.910;9.478;2023-03-23T09:36:43;97600.19;;;14.95;50.29
36284;BME280;56085;48.910;9.478;2023-03-23T09:39:09;97599.75;;;15.04;50.10
36284;BME280;56085;48.910;9.478;2023-03-23T09:44:07;97604.53;;;15.00;50.44
36284;BME280;56085;48.910;9.478;2023-03-23T09:46:42;97612.16;;;14.89;50.20
36284;BME280;56085;48.910;9.478;2023-03-23T09:49:13;97618.50;;;14.89;49.77
36284;BME280;56085;48.910;9.478;2023-03-23T09:54:18;97625.22;;;14.99;50.48
36284;BME280;56085;48.910;9.478;2023-03-23T09:56:44;97612.84;;;15.04;50.40
36284;BME280;56085;48.910;9.478;2023-03-23T09:59:27;97619.19;;;15.08;50.61
36284;BME280;56085;48.910;9.478;2023-03-23T10:02:17;97630.78;;;14.99;50.68
36284;BME280;56085;48.910;9.478;2023-03-23T10:04:46;97618.78;;;15.09;50.56
36284;BME280;56085;48.910;9.478;2023-03-23T10:07:14;97621.19;;;15.07;50.80
36284;BME280;56085;48.910;9.478;2023-03-23T10:09:42;97627.53;;;15.08;50.84
36284;BME280;56085;48.910;9.478;2023-03-23T10:14:46;97630.28;;;15.15;50.66
36284;BME280;56085;48.910;9.478;2023-03-23T10:17:17;97622.34;;;15.10;50.84
36284;BME280;56085;48.910;9.478;2023-03-23T10:22:13;97632.69;;;15.09;50.89
36284;BME280;56085;48.910;9.478;2023-03-23T10:24:42;97636.28;;;15.10;51.15
36284;BME280;56085;48.910;9.478;2023-03-23T10:29:35;97638.72;;;15.00;51.30
36284;BME280;56085;48.910;9.478;2023-03-23T10:32:03;97646.63;;;15.13;51.23
36284;BME280;56085;48.910;9.478;2023-03-23T10:34:31;97640.25;;;15.12;51.36
36284;BME280;56085;48.910;9.478;2023-03-23T10:39:24;97653.41;;;15.64;51.61
36284;BME280;56085;48.910;9.478;2023-03-23T10:41:51;97651.72;;;15.74;52.01
36284;BME280;56085;48.910;9.478;2023-03-23T10:44:21;97656.19;;;16.10;52.05
36284;BME280;56085;48.910;9.478;2023-03-23T10:46:51;97651.38;;;16.48;51.89
36284;BME280;56085;48.910;9.478;2023-03-23T10:49:23;97654.66;;;16.43;52.00
36284;BME280;56085;48.910;9.478;2023-03-23T10:51:53;97652.28;;;16.42;51.56
36284;BME280;56085;48.910;9.478;2023-03-23T10:54:26;97650.84;;;16.26;51.78
36284;BME280;56085;48.910;9.478;2023-03-23T10:56:52;97635.88;;;16.47;51.52
36284;BME280;56085;48.910;9.478;2023-03-23T10:59:19;97647.25;;;16.60;51.50
36284;BME280;56085;48.910;9.478;2023-03-23T11:01:48;97644.56;;;16.18;51.49
36284;BME280;56085;48.910;9.478;2023-03-23T11:04:15;97648.09;;;15.81;51.42
36284;BME280;56085;48.910;9.478;2023-03-23T11:06:45;97650.03;;;15.87;51.35
36284;BME280;56085;48.910;9.478;2023-03-23T11:09:17;97653.78;;;16.12;51.98
36284;BME280;56085;48.910;9.478;2023-03-23T11:11:53;97640.38;;;15.96;51.88
36284;BME280;56085;48.910;9.478;2023-03-23T11:14:26;97653.28;;;16.20;51.74
36284;BME280;56085;48.910;9.478;2023-03-23T11:16:55;97655.16;;;16.31;51.92
36284;BME280;56085;48.910;9.478;2023-03-23T11:19:26;97642.78;;;16.35;51.81
36284;BME280;56085;48.910;9.478;2023-03-23T11:21:54;97632.06;;;16.30;52.21
36284;BME280;56085;48.910;9.478;2023-03-23T11:24:23;97637.72;;;16.23;52.15
36284;BME280;56085;48.910;9.478;2023-03-23T11:26:49;97638.81;;;15.95;52.22
36284;BME280;56085;48.910;9.478;2023-03-23T11:29:16;97653.59;;;15.92;52.24
36284;BME280;56085;48.910;9.478;2023-03-23T11:31:46;97648.53;;;15.72;52.54
36284;BME280;56085;48.910;9.478;2023-03-23T11:34:16;97650.19;;;15.66;52.38
36284;BME280;56085;48.910;9.478;2023-03-23T11:36:47;97634.38;;;15.52;52.61
36284;BME280;56085;48.910;9.478;2023-03-23T11:39:26;97644.00;;;15.44;52.67
36284;BME280;56085;48.910;9.478;2023-03-23T11:41:52;97644.41;;;15.42;53.18
36284;BME280;56085;48.910;9.478;2023-03-23T11:44:18;97630.03;;;15.47;53.20
36284;BME280;56085;48.910;9.478;2023-03-23T11:47:02;97646.75;;;15.47;53.07
36284;BME280;56085;48.910;9.478;2023-03-23T11:52:03;97633.84;;;15.68;53.56
36284;BME280;56085;48.910;9.478;2023-03-23T11:54:38;97629.44;;;15.74;53.75
36284;BME280;56085;48.910;9.478;2023-03-23T11:57:09;97639.25;;;15.90;54.02
36284;BME280;56085;48.910;9.478;2023-03-23T11:59:35;97639.53;;;16.02;54.22
36284;BME280;56085;48.910;9.478;2023-03-23T12:07:32;97629.94;;;16.07;54.25
36284;BME280;56085;48.910;9.478;2023-03-23T12:10:20;97634.31;;;16.04;54.33
36284;BME280;56085;48.910;9.478;2023-03-23T12:15:25;97630.97;;;16.55;54.37
36284;BME280;56085;48.910;9.478;2023-03-23T12:20:31;97635.44;;;16.49;54.72
36284;BME280;56085;48.910;9.478;2023-03-23T12:31:07;97624.63;;;16.16;55.07
36284;BME280;56085;48.910;9.478;2023-03-23T12:36:15;97618.34;;;16.12;55.20
36284;BME280;56085;48.910;9.478;2023-03-23T12:48:51;97615.72;;;15.94;55.45
36284;BME280;56085;48.910;9.478;2023-03-23T12:54:03;97618.69;;;16.18;55.89
36284;BME280;56085;48.910;9.478;2023-03-23T12:56:48;97623.28;;;16.32;55.42
36284;BME280;56085;48.910;9.478;2023-03-23T13:01:55;97618.88;;;16.34;55.53
36284;BME280;56085;48.910;9.478;2023-03-23T13:04:26;97607.25;;;16.39;55.55
36284;BME280;56085;48.910;9.478;2023-03-23T13:06:52;97608.81;;;16.44;55.49
36284;BME280;56085;48.910;9.478;2023-03-23T13:12:01;97597.66;;;16.44;55.59
36284;BME280;56085;48.910;9.478;2023-03-23T13:22:09;97582.63;;;16.65;55.39
36284;BME280;56085;48.910;9.478;2023-03-23T13:24:37;97584.91;;;16.70;55.14
36284;BME280;56085;48.910;9.478;2023-03-23T13:27:04;97587.91;;;16.87;55.10
36284;BME280;56085;48.910;9.478;2023-03-23T13:29:31;97579.13;;;16.85;55.00
36284;BME280;56085;48.910;9.478;2023-03-23T13:32:15;97575.72;;;17.04;54.71
36284;BME280;56085;48.910;9.478;2023-03-23T13:34:41;97575.06;;;17.20;54.69
36284;BME280;56085;48.910;9.478;2023-03-23T13:39:49;97563.94;;;17.40;54.60
36284;BME280;56085;48.910;9.478;2023-03-23T13:47:28;97559.16;;;17.41;54.15
36284;BME280;56085;48.910;9.478;2023-03-23T13:52:21;97548.94;;;17.07;53.61
36284;BME280;56085;48.910;9.478;2023-03-23T13:54:47;97551.56;;;16.90;53.89
36284;BME280;56085;48.910;9.478;2023-03-23T13:57:36;97561.56;;;16.88;53.80
36284;BME280;56085;48.910;9.478;2023-03-23T14:00:11;97553.63;;;16.55;53.64
36284;BME280;56085;48.910;9.478;2023-03-23T14:02:38;97550.84;;;16.55;53.61
36284;BME280;56085;48.910;9.478;2023-03-23T14:05:09;97549.16;;;16.62;53.86
36284;BME280;56085;48.910;9.478;2023-03-23T14:07:51;97543.19;;;16.63;53.92
36284;BME280;56085;48.910;9.478;2023-03-23T14:10:17;97533.91;;;16.70;54.13
36284;BME280;56085;48.910;9.478;2023-03-23T14:12:42;97539.56;;;16.66;53.77
36284;BME280;56085;48.910;9.478;2023-03-23T14:15:13;97539.91;;;16.68;53.93
36284;BME280;56085;48.910;9.478;2023-03-23T14:17:43;97530.75;;;16.68;54.11
36284;BME280;56085;48.910;9.478;2023-03-23T14:20:09;97516.69;;;16.75;53.84
36284;BME280;56085;48.910;9.478;2023-03-23T14:22:41;97520.63;;;16.78;54.12
36284;BME280;56085;48.910;9.478;2023-03-23T14:27:38;97497.47;;;16.81;54.06
36284;BME280;56085;48.910;9.478;2023-03-23T14:30:05;97492.59;;;16.88;54.21
36284;BME280;56085;48.910;9.478;2023-03-23T14:32:31;97497.63;;;16.97;53.96
36284;BME280;56085;48.910;9.478;2023-03-23T14:34:57;97501.16;;;17.01;53.86
36284;BME280;56085;48.910;9.478;2023-03-23T14:37:23;97503.47;;;17.06;53.71
36284;BME280;56085;48.910;9.478;2023-03-23T14:39:50;97502.19;;;17.11;53.75
36284;BME280;56085;48.910;9.478;2023-03-23T14:42:17;97507.53;;;17.02;53.92